Check out our new BloomSky Weather System.

Active alerts


No alerts


Thunder radar  blitzortung!


Rain radar more information rain snow radar


Visit our other weather sites:

Template documentation
and downloads

And another site



Weather Underground History page Text

Daily Summary for November 28, 2017 Units:  English    Metric   Both
« Previous Day
Next Day »
Daily Weekly Monthly Yearly Custom
  High: Low: Average:
Temperature: 79.0 °F 46.6 °F 61.7 °F
Dew Point: 65.8 °F 45.9 °F 56.7 °F
Humidity: 98 % 57 % 85 %
Wind Speed: 12.0 mph 0.0 mph 1.5 mph
Wind Gust: 14.0 mph - -
Wind:- - SSE
Pressure: 30.16 in 30.01 in -
Precipitation: 0.00 in    
Historical Graphs
 
 
Tabular Data for November 28, 2017
Time Temperature Dew Point Pressure Wind Wind Speed Wind Gust Humidity Rainfall Rate (Hourly)
00:04 52.9 °F 50.0 °F 30.08 in Calm     90 % 0.00 in
00:09 52.5 °F 49.6 °F 30.08 in Calm     90 % 0.00 in
00:14 52.3 °F 49.8 °F 30.08 in Calm     91 % 0.00 in
00:19 52.3 °F 50.0 °F 30.08 in Calm     92 % 0.00 in
00:24 52.2 °F 49.8 °F 30.08 in Calm     92 % 0.00 in
00:29 52.0 °F 49.6 °F 30.07 in Calm     92 % 0.00 in
00:34 51.8 °F 49.6 °F 30.08 in Calm     92 % 0.00 in
00:39 51.6 °F 49.5 °F 30.07 in Calm     92 % 0.00 in
00:44 51.4 °F 49.5 °F 30.07 in Calm     93 % 0.00 in
00:49 51.3 °F 49.3 °F 30.07 in Calm     93 % 0.00 in
00:54 51.1 °F 49.1 °F 30.07 in Calm     93 % 0.00 in
00:59 50.7 °F 48.7 °F 30.06 in Calm     93 % 0.00 in
01:04 50.5 °F 48.6 °F 30.07 in Calm     93 % 0.00 in
01:05 50.5 °F 48.6 °F 30.06 in Calm     93 % 0.00 in
01:10 50.4 °F 48.7 °F 30.06 in Calm     94 % 0.00 in
01:15 50.4 °F 48.7 °F 30.06 in Calm     94 % 0.00 in
01:20 50.2 °F 48.6 °F 30.06 in Calm     94 % 0.00 in
01:25 50.2 °F 48.6 °F 30.06 in Calm     94 % 0.00 in
01:30 50.2 °F 48.6 °F 30.06 in Calm     94 % 0.00 in
01:35 50.0 °F 48.4 °F 30.05 in Calm     94 % 0.00 in
01:40 50.0 °F 48.6 °F 30.05 in Calm     95 % 0.00 in
01:45 49.8 °F 48.4 °F 30.05 in Calm     95 % 0.00 in
01:50 49.8 °F 48.4 °F 30.05 in Calm     95 % 0.00 in
01:55 49.6 °F 48.2 °F 30.04 in Calm     95 % 0.00 in
02:00 49.6 °F 48.2 °F 30.05 in Calm     95 % 0.00 in
02:05 49.5 °F 48.0 °F 30.04 in Calm     95 % 0.00 in
02:10 49.5 °F 48.0 °F 30.04 in Calm     95 % 0.00 in
02:15 49.3 °F 47.8 °F 30.04 in Calm     95 % 0.00 in
02:20 49.3 °F 47.8 °F 30.04 in Calm     95 % 0.00 in
02:25 48.9 °F 47.5 °F 30.04 in Calm     95 % 0.00 in
02:30 48.7 °F 47.3 °F 30.04 in Calm     95 % 0.00 in
02:35 48.7 °F 47.7 °F 30.04 in Calm     96 % 0.00 in
02:40 48.9 °F 47.8 °F 30.04 in Calm     96 % 0.00 in
02:45 48.9 °F 47.8 °F 30.03 in Calm     96 % 0.00 in
02:50 49.1 °F 48.0 °F 30.03 in Calm   1.0 mph 96 % 0.00 in
02:55 49.1 °F 48.0 °F 30.03 in Calm   1.0 mph 96 % 0.00 in
03:00 48.9 °F 47.8 °F 30.03 in Calm   1.0 mph 96 % 0.00 in
03:05 48.9 °F 47.8 °F 30.03 in Calm     96 % 0.00 in
03:10 48.9 °F 47.8 °F 30.03 in Calm     96 % 0.00 in
03:15 48.9 °F 47.8 °F 30.03 in Calm     96 % 0.00 in
03:20 48.7 °F 47.7 °F 30.03 in Calm     96 % 0.00 in
03:25 48.7 °F 47.7 °F 30.03 in Calm     96 % 0.00 in
03:30 48.6 °F 47.5 °F 30.03 in Calm     96 % 0.00 in
03:35 48.6 °F 47.5 °F 30.02 in Calm     96 % 0.00 in
03:40 48.4 °F 47.3 °F 30.02 in Calm     96 % 0.00 in
03:45 48.0 °F 46.9 °F 30.02 in Calm     96 % 0.00 in
03:50 48.0 °F 46.9 °F 30.02 in Calm     96 % 0.00 in
03:55 47.8 °F 46.8 °F 30.02 in Calm     96 % 0.00 in
04:00 47.7 °F 46.9 °F 30.02 in Calm     97 % 0.00 in
04:05 47.7 °F 46.9 °F 30.02 in Calm     97 % 0.00 in
04:10 47.5 °F 46.8 °F 30.02 in Calm     97 % 0.00 in
04:15 47.5 °F 46.8 °F 30.02 in Calm     97 % 0.00 in
04:20 47.5 °F 46.8 °F 30.02 in Calm     97 % 0.00 in
04:25 47.5 °F 46.8 °F 30.02 in Calm     97 % 0.00 in
04:30 47.5 °F 46.8 °F 30.02 in Calm     97 % 0.00 in
04:35 47.5 °F 46.8 °F 30.02 in Calm     97 % 0.00 in
04:40 47.3 °F 46.6 °F 30.02 in Calm     97 % 0.00 in
04:45 47.1 °F 46.4 °F 30.02 in Calm     97 % 0.00 in
04:50 47.1 °F 46.4 °F 30.02 in Calm     97 % 0.00 in
04:55 47.1 °F 46.4 °F 30.02 in Calm     97 % 0.00 in
05:00 47.1 °F 46.4 °F 30.02 in Calm     97 % 0.00 in
05:05 47.1 °F 46.4 °F 30.02 in Calm     97 % 0.00 in
05:10 46.9 °F 46.2 °F 30.02 in Calm     97 % 0.00 in
05:15 46.9 °F 46.2 °F 30.02 in Calm     97 % 0.00 in
05:20 46.9 °F 46.2 °F 30.03 in Calm     97 % 0.00 in
05:25 47.1 °F 46.4 °F 30.03 in Calm     97 % 0.00 in
05:30 47.1 °F 46.4 °F 30.03 in Calm     97 % 0.00 in
05:35 47.1 °F 46.4 °F 30.03 in Calm     97 % 0.00 in
05:40 46.9 °F 46.2 °F 30.03 in Calm     97 % 0.00 in
05:45 46.6 °F 45.9 °F 30.03 in Calm     97 % 0.00 in
05:50 46.6 °F 45.9 °F 30.04 in Calm     97 % 0.00 in
05:55 46.8 °F 46.2 °F 30.04 in Calm     98 % 0.00 in
06:00 46.8 °F 46.2 °F 30.04 in Calm     98 % 0.00 in
06:05 46.9 °F 46.4 °F 30.04 in Calm     98 % 0.00 in
06:16 46.9 °F 46.2 °F 30.04 in Calm     97 % 0.00 in
06:31 46.9 °F 46.2 °F 30.04 in Calm   1.0 mph 97 % 0.00 in
06:36 46.9 °F 46.2 °F 30.04 in Calm   1.0 mph 97 % 0.00 in
06:46 46.9 °F 46.2 °F 30.05 in Calm   1.0 mph 97 % 0.00 in
06:51 46.9 °F 46.2 °F 30.05 in Calm   1.0 mph 97 % 0.00 in
06:56 46.9 °F 46.2 °F 30.05 in Calm   1.0 mph 97 % 0.00 in
07:01 47.1 °F 46.4 °F 30.05 in Calm     97 % 0.00 in
07:06 47.1 °F 46.6 °F 30.05 in Calm     98 % 0.00 in
07:11 47.3 °F 46.8 °F 30.05 in Calm   1.0 mph 98 % 0.00 in
07:16 47.5 °F 46.9 °F 30.05 in Calm   1.0 mph 98 % 0.00 in
07:21 47.7 °F 47.1 °F 30.05 in Calm   1.0 mph 98 % 0.00 in
07:36 49.1 °F 48.6 °F 30.06 in Calm   1.0 mph 98 % 0.00 in
07:41 49.6 °F 49.1 °F 30.06 in Calm   1.0 mph 98 % 0.00 in
07:46 50.4 °F 49.8 °F 30.06 in Calm   1.0 mph 98 % 0.00 in
07:51 51.1 °F 50.5 °F 30.06 in Calm     98 % 0.00 in
07:56 51.6 °F 51.1 °F 30.06 in Calm   1.0 mph 98 % 0.00 in
08:01 52.2 °F 51.6 °F 30.06 in Calm   1.0 mph 98 % 0.00 in
08:06 53.2 °F 52.7 °F 30.06 in Calm   1.0 mph 98 % 0.00 in
08:11 54.3 °F 53.8 °F 30.06 in Calm   1.0 mph 98 % 0.00 in
08:16 55.4 °F 54.9 °F 30.06 in Calm   1.0 mph 98 % 0.00 in
08:21 56.5 °F 55.6 °F 30.06 in Calm   1.0 mph 97 % 0.00 in
08:36 58.3 °F 55.9 °F 30.06 in ESE 2.0 mph 3.0 mph 92 % 0.00 in
08:41 58.8 °F 56.5 °F 30.07 in SE 1.0 mph 3.0 mph 92 % 0.00 in
08:46 59.5 °F 56.3 °F 30.07 in SSE 1.0 mph 4.0 mph 89 % 0.00 in
08:51 60.3 °F 56.7 °F 30.07 in SE 1.0 mph 4.0 mph 88 % 0.00 in
08:56 61.2 °F 57.2 °F 30.07 in Calm   4.0 mph 87 % 0.00 in
09:06 62.6 °F 57.7 °F 30.08 in Calm   3.0 mph 84 % 0.00 in
09:11 63.3 °F 58.5 °F 30.07 in SSE 1.0 mph 3.0 mph 84 % 0.00 in
09:21 64.6 °F 58.6 °F 30.08 in SE 2.0 mph 3.0 mph 81 % 0.00 in
09:26 64.9 °F 58.6 °F 30.08 in Calm   4.0 mph 80 % 0.00 in
09:41 67.3 °F 59.5 °F 30.08 in ESE 3.0 mph 3.0 mph 76 % 0.00 in
09:46 67.5 °F 59.5 °F 30.08 in Calm   4.0 mph 76 % 0.00 in
09:51 68.0 °F 59.7 °F 30.08 in SW 1.0 mph 4.0 mph 75 % 0.00 in
09:56 68.7 °F 60.1 °F 30.08 in South 4.0 mph 4.0 mph 74 % 0.00 in
10:01 69.3 °F 60.6 °F 30.09 in SSE 1.0 mph 6.0 mph 74 % 0.00 in
10:06 70.0 °F 60.1 °F 30.09 in SE 2.0 mph 6.0 mph 71 % 0.00 in
10:12 70.0 °F 60.1 °F 30.09 in SW 2.0 mph 7.0 mph 71 % 0.00 in
10:22 71.1 °F 61.5 °F 30.09 in Calm   7.0 mph 72 % 0.00 in
10:27 71.6 °F 60.8 °F 30.09 in SE 4.0 mph 4.0 mph 69 % 0.00 in
10:37 72.0 °F 60.8 °F 30.09 in SSW 3.0 mph 6.0 mph 68 % 0.00 in
10:42 72.3 °F 60.8 °F 30.09 in SSW 6.0 mph 10.0 mph 67 % 0.00 in
10:47 72.5 °F 61.0 °F 30.09 in SSE 8.0 mph 10.0 mph 67 % 0.00 in
10:52 72.5 °F 61.0 °F 30.09 in South 4.0 mph 10.0 mph 67 % 0.00 in
11:02 73.2 °F 61.2 °F 30.09 in SSE 3.0 mph 10.0 mph 66 % 0.00 in
11:07 73.2 °F 61.2 °F 30.09 in ESE 6.0 mph 10.0 mph 66 % 0.00 in
11:12 73.6 °F 61.5 °F 30.08 in East 7.0 mph 11.0 mph 66 % 0.00 in
11:17 73.9 °F 61.3 °F 30.08 in South 2.0 mph 11.0 mph 65 % 0.00 in
11:22 74.1 °F 61.2 °F 30.08 in SSW 4.0 mph 11.0 mph 64 % 0.00 in
11:37 74.8 °F 61.9 °F 30.07 in SSE 8.0 mph 8.0 mph 64 % 0.00 in
11:42 75.0 °F 61.2 °F 30.07 in SSW 3.0 mph 12.0 mph 62 % 0.00 in
11:47 75.4 °F 61.5 °F 30.07 in SSW 9.0 mph 12.0 mph 62 % 0.00 in
11:52 75.4 °F 61.5 °F 30.07 in SSE 4.0 mph 12.0 mph 62 % 0.00 in
11:57 75.4 °F 61.9 °F 30.07 in SW 4.0 mph 11.0 mph 63 % 0.00 in
12:07 76.1 °F 62.1 °F 30.07 in SE 6.0 mph 9.0 mph 62 % 0.00 in
12:12 76.5 °F 62.1 °F 30.07 in SE 3.0 mph 9.0 mph 61 % 0.00 in
12:17 76.3 °F 61.9 °F 30.06 in East 2.0 mph 11.0 mph 61 % 0.00 in
12:22 75.9 °F 62.4 °F 30.06 in ESE 6.0 mph 11.0 mph 63 % 0.00 in
12:27 76.3 °F 62.8 °F 30.06 in SE 5.0 mph 11.0 mph 63 % 0.00 in
12:32 76.3 °F 62.2 °F 30.06 in SSW 6.0 mph 9.0 mph 62 % 0.00 in
12:37 76.5 °F 62.1 °F 30.05 in SE 5.0 mph 12.0 mph 61 % 0.00 in
12:42 76.5 °F 62.1 °F 30.05 in SSW 3.0 mph 12.0 mph 61 % 0.00 in
12:47 76.6 °F 62.2 °F 30.05 in SSW 3.0 mph 12.0 mph 61 % 0.00 in
12:52 76.6 °F 62.2 °F 30.05 in SSW 6.0 mph 11.0 mph 61 % 0.00 in
12:57 76.8 °F 62.4 °F 30.05 in SSW 5.0 mph 11.0 mph 61 % 0.00 in
13:07 77.2 °F 62.2 °F 30.04 in SE 7.0 mph 14.0 mph 60 % 0.00 in
13:17 77.4 °F 62.8 °F 30.04 in South 2.0 mph 14.0 mph 61 % 0.00 in
13:27 77.4 °F 61.9 °F 30.04 in SSE 6.0 mph 11.0 mph 59 % 0.00 in
13:32 77.5 °F 62.6 °F 30.04 in SE 9.0 mph 11.0 mph 60 % 0.00 in
13:42 77.0 °F 62.6 °F 30.03 in ESE 7.0 mph 11.0 mph 61 % 0.00 in
13:47 77.2 °F 62.6 °F 30.03 in ESE 5.0 mph 10.0 mph 61 % 0.00 in
13:52 77.5 °F 62.6 °F 30.03 in SW 7.0 mph 10.0 mph 60 % 0.00 in
13:57 77.7 °F 62.2 °F 30.03 in SSW 6.0 mph 10.0 mph 59 % 0.00 in
14:07 77.4 °F 61.9 °F 30.03 in SSW 3.0 mph 10.0 mph 59 % 0.00 in
14:12 77.7 °F 62.8 °F 30.03 in SE 3.0 mph 9.0 mph 60 % 0.00 in
14:22 78.6 °F 62.6 °F 30.02 in SSW 5.0 mph 10.0 mph 58 % 0.00 in
14:27 79.0 °F 62.4 °F 30.02 in SE 6.0 mph 10.0 mph 57 % 0.00 in
14:32 79.0 °F 63.0 °F 30.02 in ENE 2.0 mph 10.0 mph 58 % 0.00 in
14:37 78.6 °F 64.9 °F 30.02 in SSE 4.0 mph 10.0 mph 63 % 0.00 in
14:42 77.5 °F 65.3 °F 30.02 in ESE 3.0 mph 11.0 mph 66 % 0.00 in
14:47 77.4 °F 65.5 °F 30.02 in SE 4.0 mph 11.0 mph 67 % 0.00 in
14:52 77.5 °F 65.3 °F 30.02 in South 3.0 mph 11.0 mph 66 % 0.00 in
14:57 77.5 °F 65.7 °F 30.01 in ESE 5.0 mph 11.0 mph 67 % 0.00 in
15:07 77.2 °F 65.8 °F 30.01 in SSE 4.0 mph 12.0 mph 68 % 0.00 in
15:12 77.0 °F 65.7 °F 30.01 in ESE 12.0 mph 12.0 mph 68 % 0.00 in
15:17 76.5 °F 65.1 °F 30.01 in SSE 3.0 mph 12.0 mph 68 % 0.00 in
15:22 75.7 °F 65.3 °F 30.01 in South 3.0 mph 12.0 mph 70 % 0.00 in
15:27 75.4 °F 65.3 °F 30.01 in SE 2.0 mph 12.0 mph 71 % 0.00 in
15:32 75.4 °F 65.3 °F 30.01 in SE 4.0 mph 9.0 mph 71 % 0.00 in
15:37 75.7 °F 65.3 °F 30.02 in East 4.0 mph 9.0 mph 70 % 0.00 in
15:42 75.7 °F 65.3 °F 30.01 in ESE 4.0 mph 11.0 mph 70 % 0.00 in
15:47 75.9 °F 64.9 °F 30.02 in East 3.0 mph 11.0 mph 69 % 0.00 in
15:57 76.3 °F 64.9 °F 30.02 in SE 8.0 mph 10.0 mph 68 % 0.00 in
16:12 75.6 °F 64.2 °F 30.02 in SE 6.0 mph 12.0 mph 68 % 0.00 in
16:22 75.0 °F 64.6 °F 30.03 in ESE 7.0 mph 11.0 mph 70 % 0.00 in
16:27 74.7 °F 64.6 °F 30.03 in ESE 6.0 mph 11.0 mph 71 % 0.00 in
16:37 74.3 °F 64.8 °F 30.03 in SSE 2.0 mph 11.0 mph 72 % 0.00 in
16:47 73.8 °F 64.9 °F 30.03 in SE 4.0 mph 8.0 mph 74 % 0.00 in
16:52 73.4 °F 64.6 °F 30.03 in SE 3.0 mph 8.0 mph 74 % 0.00 in
16:57 73.0 °F 64.6 °F 30.03 in SE 2.0 mph 7.0 mph 75 % 0.00 in
17:02 72.9 °F 64.4 °F 30.04 in SE 5.0 mph 7.0 mph 75 % 0.00 in
17:12 72.1 °F 64.2 °F 30.04 in SE 1.0 mph 7.0 mph 76 % 0.00 in
17:17 72.0 °F 64.4 °F 30.04 in East 3.0 mph 7.0 mph 77 % 0.00 in
17:22 71.8 °F 64.6 °F 30.04 in SSE 4.0 mph 7.0 mph 78 % 0.00 in
17:27 71.4 °F 64.2 °F 30.04 in Calm   7.0 mph 78 % 0.00 in
17:32 71.2 °F 64.4 °F 30.04 in SSE 2.0 mph 7.0 mph 79 % 0.00 in
17:37 71.1 °F 64.2 °F 30.04 in South 4.0 mph 6.0 mph 79 % 0.00 in
17:47 70.5 °F 64.0 °F 30.04 in Calm   7.0 mph 80 % 0.00 in
17:52 70.3 °F 64.2 °F 30.04 in SE 2.0 mph 7.0 mph 81 % 0.00 in
17:57 70.2 °F 64.0 °F 30.05 in ESE 2.0 mph 4.0 mph 81 % 0.00 in
18:07 69.6 °F 63.9 °F 30.05 in SE 1.0 mph 5.0 mph 82 % 0.00 in
18:12 69.4 °F 63.7 °F 30.05 in SE 1.0 mph 5.0 mph 82 % 0.00 in
18:17 69.3 °F 63.9 °F 30.05 in Calm   5.0 mph 83 % 0.00 in
18:22 69.1 °F 63.7 °F 30.06 in ESE 1.0 mph 3.0 mph 83 % 0.00 in
18:27 68.7 °F 63.7 °F 30.06 in Calm   3.0 mph 84 % 0.00 in
18:37 68.2 °F 63.1 °F 30.07 in Calm   2.0 mph 84 % 0.00 in
18:42 68.0 °F 63.3 °F 30.07 in Calm   3.0 mph 85 % 0.00 in
18:47 67.8 °F 63.5 °F 30.07 in SE 2.0 mph 3.0 mph 86 % 0.00 in
18:52 67.6 °F 63.3 °F 30.07 in SSW 2.0 mph 4.0 mph 86 % 0.00 in
18:57 67.5 °F 63.5 °F 30.07 in SE 1.0 mph 4.0 mph 87 % 0.00 in
19:07 67.3 °F 63.3 °F 30.08 in Calm   3.0 mph 87 % 0.00 in
19:12 67.1 °F 63.1 °F 30.08 in SE 2.0 mph 3.0 mph 87 % 0.00 in
19:17 66.9 °F 63.0 °F 30.08 in ESE 2.0 mph 4.0 mph 87 % 0.00 in
19:27 66.7 °F 63.1 °F 30.09 in SE 1.0 mph 4.0 mph 88 % 0.00 in
19:37 66.6 °F 63.1 °F 30.08 in SE 2.0 mph 4.0 mph 89 % 0.00 in
19:42 66.6 °F 63.1 °F 30.09 in Calm   4.0 mph 89 % 0.00 in
19:47 66.4 °F 63.0 °F 30.09 in East 2.0 mph 4.0 mph 89 % 0.00 in
19:52 66.2 °F 62.8 °F 30.09 in SSE 1.0 mph 4.0 mph 89 % 0.00 in
19:57 66.0 °F 62.6 °F 30.09 in SE 1.0 mph 4.0 mph 89 % 0.00 in
20:02 65.8 °F 62.8 °F 30.09 in Calm   4.0 mph 90 % 0.00 in
20:07 65.7 °F 62.6 °F 30.10 in ESE 1.0 mph 4.0 mph 90 % 0.00 in
20:12 65.7 °F 62.6 °F 30.10 in SE 1.0 mph 4.0 mph 90 % 0.00 in
20:17 65.5 °F 62.4 °F 30.10 in SSE 2.0 mph 3.0 mph 90 % 0.00 in
20:22 65.5 °F 62.8 °F 30.10 in South 1.0 mph 6.0 mph 91 % 0.00 in
20:27 65.5 °F 62.4 °F 30.10 in SE 2.0 mph 6.0 mph 90 % 0.00 in
20:32 65.3 °F 62.6 °F 30.11 in East 1.0 mph 6.0 mph 91 % 0.00 in
20:37 65.1 °F 62.4 °F 30.12 in Calm   5.0 mph 91 % 0.00 in
20:42 64.9 °F 62.2 °F 30.12 in Calm   5.0 mph 91 % 0.00 in
20:47 64.8 °F 62.1 °F 30.12 in Calm   3.0 mph 91 % 0.00 in
20:52 64.6 °F 61.9 °F 30.12 in Calm   1.0 mph 91 % 0.00 in
21:07 63.9 °F 61.5 °F 30.12 in Calm   1.0 mph 92 % 0.00 in
21:13 63.7 °F 61.3 °F 30.12 in Calm   1.0 mph 92 % 0.00 in
21:20 63.3 °F 61.3 °F 30.13 in Calm   2.0 mph 93 % 0.00 in
21:21 63.3 °F 61.3 °F 30.13 in Calm   2.0 mph 93 % 0.00 in
21:27 63.1 °F 61.2 °F 30.13 in SE 1.0 mph 2.0 mph 93 % 0.00 in
21:29 63.0 °F 61.0 °F 30.13 in Calm   2.0 mph 93 % 0.00 in
21:30 63.0 °F 61.0 °F 30.13 in Calm   2.0 mph 93 % 0.00 in
21:35 63.0 °F 61.2 °F 30.13 in Calm   1.0 mph 94 % 0.00 in
21:40 62.6 °F 60.8 °F 30.13 in Calm   1.0 mph 94 % 0.00 in
21:45 62.2 °F 60.4 °F 30.13 in Calm   1.0 mph 94 % 0.00 in
21:48 62.1 °F 60.3 °F 30.13 in Calm   1.0 mph 94 % 0.00 in
21:53 62.1 °F 60.6 °F 30.12 in SE 1.0 mph 1.0 mph 95 % 0.00 in
21:58 62.2 °F 60.8 °F 30.12 in Calm   2.0 mph 95 % 0.00 in
22:13 61.9 °F 60.8 °F 30.14 in Calm   1.0 mph 96 % 0.00 in
22:18 61.7 °F 60.6 °F 30.14 in Calm   1.0 mph 96 % 0.00 in
22:28 61.3 °F 60.3 °F 30.13 in Calm   1.0 mph 96 % 0.00 in
22:33 61.3 °F 60.3 °F 30.13 in Calm   1.0 mph 96 % 0.00 in
22:38 61.3 °F 60.3 °F 30.13 in Calm   1.0 mph 96 % 0.00 in
22:49 61.5 °F 60.6 °F 30.14 in Calm   1.0 mph 97 % 0.00 in
22:54 61.5 °F 60.6 °F 30.14 in Calm   1.0 mph 97 % 0.00 in
23:04 62.1 °F 61.2 °F 30.14 in Calm   1.0 mph 97 % 0.00 in
23:09 62.4 °F 61.9 °F 30.15 in SSE 1.0 mph 1.0 mph 98 % 0.00 in
23:24 63.3 °F 62.8 °F 30.15 in Calm   3.0 mph 98 % 0.00 in
23:29 63.3 °F 62.8 °F 30.15 in Calm   3.0 mph 98 % 0.00 in
23:34 63.5 °F 63.0 °F 30.15 in SE 1.0 mph 3.0 mph 98 % 0.00 in
23:39 63.7 °F 63.1 °F 30.15 in Calm   3.0 mph 98 % 0.00 in
23:44 63.7 °F 63.1 °F 30.16 in Calm   1.0 mph 98 % 0.00 in
23:54 63.7 °F 63.1 °F 30.15 in Calm   1.0 mph 98 % 0.00 in
23:59 63.7 °F 63.1 °F 30.15 in Calm   2.0 mph 98 % 0.00 in
Spring, Texas: Villages of Bridgestone
Compliments of Weather Underground - 2.5 mb

Script developed by  Jim McMurry - jmcmurry@mwt.net Adapted for the template by  Wim van der Kuil - Leuven-Template.eu

You find our weather info also at:

UK Metoffice

WeatherCloud

Weather Underground

Mid-South Weather Network

AWEKAS

Citizen Weather Observer Program (CWOP)

HAMweather, WeatherForYou, PWS Weather

Equipment we use:

Weather-station
Davis Vantage Vue

Weather-program
Meteohub

Weather-server
Debian 7.9 x86 (Guest)

Provider
DreamHost

Davis Vantage Vue

Meteohub

Debian 7.9 x86 (Guest)

DreamHost